createdAt,value
2023-01-18T00:01:08.031Z,97392.75
2023-01-18T00:03:35.283Z,97395.34
2023-01-18T00:06:04.806Z,97400.53
2023-01-18T00:08:34.795Z,97391.09
2023-01-18T00:11:05.741Z,97374.81
2023-01-18T00:13:32.439Z,97359.38
2023-01-18T00:16:03.730Z,97353.41
2023-01-18T00:18:30.873Z,97349.13
2023-01-18T00:21:01.823Z,97334.53
2023-01-18T00:23:28.853Z,97326.84
2023-01-18T00:25:59.318Z,97324.25
2023-01-18T00:28:25.857Z,97322.56
2023-01-18T00:30:52.409Z,97338.88
2023-01-18T00:33:19.043Z,97362.91
2023-01-18T00:35:54.553Z,97365.50
2023-01-18T00:38:21.326Z,97389.56
2023-01-18T00:40:50.267Z,97420.47
2023-01-18T00:43:36.193Z,97437.69
2023-01-18T00:46:02.864Z,97473.75
2023-01-18T00:48:29.535Z,97478.00
2023-01-18T00:50:58.567Z,97479.66
2023-01-18T00:53:27.688Z,97489.06
2023-01-18T00:55:54.306Z,97483.94
2023-01-18T00:58:25.817Z,97485.63
2023-01-18T01:00:52.980Z,97477.94
2023-01-18T01:03:25.136Z,97468.50
2023-01-18T01:06:10.298Z,97477.16
2023-01-18T01:08:36.963Z,97485.75
2023-01-18T01:11:12.710Z,97481.47
2023-01-18T01:13:57.950Z,97477.19
2023-01-18T01:16:43.239Z,97458.31
2023-01-18T01:19:28.523Z,97435.13
2023-01-18T01:22:13.920Z,97440.28
2023-01-18T01:24:59.216Z,97431.69
2023-01-18T01:27:26.204Z,97429.97
2023-01-18T01:29:55.404Z,97436.84
2023-01-18T01:32:22.140Z,97421.41
2023-01-18T01:34:51.402Z,97422.25
2023-01-18T01:37:18.086Z,97443.72
2023-01-18T01:39:44.708Z,97465.19
2023-01-18T01:42:14.116Z,97471.19
2023-01-18T01:44:42.987Z,97473.75
2023-01-18T01:47:15.193Z,97484.91
2023-01-18T01:49:43.430Z,97481.47
2023-01-18T01:52:13.509Z,97478.00
2023-01-18T01:55:01.655Z,97478.84
2023-01-18T01:57:32.404Z,97483.97
2023-01-18T02:00:04.157Z,97478.78
2023-01-18T02:02:41.417Z,97490.81
2023-01-18T02:05:08.387Z,97476.19
2023-01-18T02:07:37.347Z,97477.06
2023-01-18T02:10:04.901Z,97477.03
2023-01-18T02:12:31.434Z,97482.16
2023-01-18T02:14:58.473Z,97486.41
2023-01-18T02:17:25.134Z,97488.19
2023-01-18T02:20:19.576Z,97514.00
2023-01-18T02:23:18.966Z,97528.66
2023-01-18T02:25:57.749Z,97527.78
2023-01-18T02:28:25.163Z,97537.25
2023-01-18T02:31:13.658Z,97530.41
2023-01-18T02:33:47.122Z,97523.56
2023-01-18T02:36:35.478Z,97529.50
2023-01-18T02:39:07.200Z,97535.44
2023-01-18T02:41:52.825Z,97532.81
2023-01-18T02:44:40.337Z,97525.88
2023-01-18T02:47:07.179Z,97520.69
2023-01-18T02:49:33.800Z,97515.44
2023-01-18T02:52:06.878Z,97500.97
2023-01-18T02:54:38.416Z,97514.75
2023-01-18T02:57:06.369Z,97521.63
2023-01-18T02:59:42.909Z,97524.25
2023-01-18T03:02:10.471Z,97527.69
2023-01-18T03:04:38.090Z,97515.53
2023-01-18T03:07:10.223Z,97521.47
2023-01-18T03:09:36.977Z,97513.66
2023-01-18T03:12:06.472Z,97501.66
2023-01-18T03:14:41.949Z,97522.31
2023-01-18T03:17:14.155Z,97513.72
2023-01-18T03:20:08.020Z,97511.94
2023-01-18T03:22:56.834Z,97500.75
2023-01-18T03:25:25.997Z,97497.31
2023-01-18T03:28:11.317Z,97497.38
2023-01-18T03:30:56.443Z,97506.00
2023-01-18T03:33:41.860Z,97511.22
2023-01-18T03:36:09.851Z,97500.06
2023-01-18T03:38:36.605Z,97494.03
2023-01-18T03:41:03.601Z,97475.22
2023-01-18T03:43:36.527Z,97476.19
2023-01-18T03:46:03.813Z,97486.47
2023-01-18T03:48:31.543Z,97492.53
2023-01-18T03:51:01.248Z,97490.91
2023-01-18T03:53:32.879Z,97490.94
2023-01-18T03:56:02.079Z,97484.97
2023-01-18T03:58:35.172Z,97484.13
2023-01-18T04:01:04.404Z,97479.81
2023-01-18T04:03:32.019Z,97485.00
2023-01-18T04:06:01.632Z,97495.28
2023-01-18T04:08:28.614Z,97507.31
2023-01-18T04:10:55.201Z,97503.84
2023-01-18T04:13:24.236Z,97506.41
2023-01-18T04:15:51.304Z,97508.06
2023-01-18T04:18:20.441Z,97510.59
2023-01-18T04:20:51.228Z,97513.16
2023-01-18T04:23:17.854Z,97524.38
2023-01-18T04:25:50.075Z,97503.78
2023-01-18T04:28:17.474Z,97488.34
2023-01-18T04:30:44.183Z,97478.91
2023-01-18T04:33:10.715Z,97479.72
2023-01-18T04:35:40.356Z,97494.22
2023-01-18T04:38:09.844Z,97496.78
2023-01-18T04:40:36.436Z,97513.16
2023-01-18T04:43:04.587Z,97532.94
2023-01-18T04:45:33.821Z,97537.28
2023-01-18T04:48:01.597Z,97539.03
2023-01-18T04:50:28.277Z,97541.66
2023-01-18T04:52:54.879Z,97540.78
2023-01-18T04:55:21.766Z,97543.38
2023-01-18T04:57:54.374Z,97539.09
2023-01-18T05:00:22.374Z,97542.44
2023-01-18T05:02:49.923Z,97530.34
2023-01-18T05:05:19.124Z,97531.19
2023-01-18T05:07:45.750Z,97555.22
2023-01-18T05:10:12.527Z,97575.72
2023-01-18T05:12:39.229Z,97582.59
2023-01-18T05:15:16.006Z,97590.31
2023-01-18T05:17:45.131Z,97612.53
2023-01-18T05:20:14.094Z,97629.50
2023-01-18T05:22:40.746Z,97630.22
2023-01-18T05:25:12.973Z,97621.31
2023-01-18T05:27:39.619Z,97615.88
2023-01-18T05:30:07.095Z,97603.78
2023-01-18T05:32:33.703Z,97602.91
2023-01-18T05:35:06.538Z,97616.56
2023-01-18T05:37:35.564Z,97614.50
2023-01-18T05:40:02.277Z,97614.28
2023-01-18T05:42:29.204Z,97626.28
2023-01-18T05:44:58.383Z,97615.06
2023-01-18T05:47:25.077Z,97619.28
2023-01-18T05:49:51.750Z,97619.06
2023-01-18T05:52:18.389Z,97620.53
2023-01-18T05:54:50.202Z,97610.97
2023-01-18T05:57:26.415Z,97604.94
2023-01-18T05:59:53.222Z,97590.56
2023-01-18T06:02:19.865Z,97576.41
2023-01-18T06:04:49.091Z,97574.09
2023-01-18T06:07:16.560Z,97583.78
2023-01-18T06:09:45.495Z,97587.34
2023-01-18T06:12:16.016Z,97602.84
2023-01-18T06:14:42.752Z,97602.81
2023-01-18T06:17:09.325Z,97602.72
2023-01-18T06:19:36.046Z,97598.53
2023-01-18T06:22:02.731Z,97602.09
2023-01-18T06:24:29.328Z,97606.50
2023-01-18T06:26:55.958Z,97626.91
2023-01-18T06:29:22.805Z,97629.31
2023-01-18T06:31:51.966Z,97634.41
2023-01-18T06:34:21.150Z,97630.94
2023-01-18T06:36:47.888Z,97630.91
2023-01-18T06:39:14.928Z,97621.53
2023-01-18T06:41:44.140Z,97595.03
2023-01-18T06:44:15.578Z,97536.03
2023-01-18T06:46:45.277Z,97530.94
2023-01-18T06:49:15.460Z,97567.88
2023-01-18T06:51:42.160Z,97591.09
2023-01-18T06:54:11.284Z,97592.97
2023-01-18T06:56:38.227Z,97606.69
2023-01-18T06:59:06.506Z,97646.16
2023-01-18T07:01:35.201Z,97660.72
2023-01-18T07:04:01.907Z,97650.81
2023-01-18T07:06:32.287Z,97658.16
2023-01-18T07:09:03.407Z,97672.53
2023-01-18T07:11:30.005Z,97676.78
2023-01-18T07:13:56.675Z,97663.75
2023-01-18T07:16:25.593Z,97660.13
2023-01-18T07:18:54.773Z,97670.19
2023-01-18T07:21:29.505Z,97676.97
2023-01-18T07:23:58.925Z,97685.47
2023-01-18T07:26:29.937Z,97699.94
2023-01-18T07:29:00.242Z,97724.91
2023-01-18T07:31:27.539Z,97744.06
2023-01-18T07:33:54.191Z,97751.88
2023-01-18T07:36:21.745Z,97757.13
2023-01-18T07:38:49.300Z,97758.09
2023-01-18T07:41:16.828Z,97749.09
2023-01-18T07:43:47.532Z,97747.06
2023-01-18T07:46:15.933Z,97758.66
2023-01-18T07:48:45.221Z,97764.66
2023-01-18T07:51:12.060Z,97777.53
2023-01-18T07:53:39.193Z,97785.53
2023-01-18T07:56:07.318Z,97791.94
2023-01-18T07:58:34.696Z,97799.22
2023-01-18T08:01:09.669Z,97800.59
2023-01-18T08:03:36.820Z,97811.28
2023-01-18T08:06:04.575Z,97810.69
2023-01-18T08:08:36.403Z,97804.97
2023-01-18T08:11:05.958Z,97816.84
2023-01-18T08:13:35.329Z,97829.63
2023-01-18T08:16:04.818Z,97832.03
2023-01-18T08:18:35.994Z,97840.63
2023-01-18T08:21:04.847Z,97844.06
2023-01-18T08:23:33.883Z,97855.13
2023-01-18T08:26:01.143Z,97858.06
2023-01-18T08:28:27.893Z,97897.97
2023-01-18T08:31:04.358Z,97871.44
2023-01-18T08:33:36.152Z,97878.34
2023-01-18T08:36:05.104Z,97886.97
2023-01-18T08:38:31.743Z,97892.91
2023-01-18T08:40:58.543Z,97880.13
2023-01-18T08:43:25.150Z,97874.94
2023-01-18T08:45:51.722Z,97878.22
2023-01-18T08:48:18.455Z,97889.28
2023-01-18T08:50:47.826Z,97891.19
2023-01-18T08:53:15.221Z,97894.84
2023-01-18T08:55:41.838Z,97900.03
2023-01-18T08:58:12.170Z,97906.91
2023-01-18T09:00:38.826Z,97918.94
2023-01-18T09:03:06.962Z,97920.59
2023-01-18T09:05:36.674Z,97941.31
2023-01-18T09:08:03.375Z,97941.38
2023-01-18T09:10:32.894Z,97935.44
2023-01-18T09:13:02.004Z,97923.66
2023-01-18T09:15:29.396Z,97934.09
2023-01-18T09:17:56.363Z,97950.66
2023-01-18T09:20:25.544Z,97967.56
2023-01-18T09:22:54.954Z,97987.53
2023-01-18T09:25:21.544Z,97996.66
2023-01-18T09:27:48.135Z,98012.47
2023-01-18T09:30:16.248Z,98022.91
2023-01-18T09:32:42.906Z,98037.19
2023-01-18T09:35:12.049Z,98052.72
2023-01-18T09:37:41.585Z,98078.81
2023-01-18T09:40:14.750Z,98117.91
2023-01-18T09:42:44.591Z,98091.66
2023-01-18T09:45:18.012Z,98097.31
2023-01-18T09:47:46.325Z,98105.66
2023-01-18T09:50:13.229Z,98110.75
2023-01-18T09:52:42.874Z,98112.66
2023-01-18T09:55:11.841Z,98134.00
2023-01-18T09:57:57.156Z,98120.22
2023-01-18T10:00:23.978Z,98121.16
2023-01-18T10:02:56.899Z,98125.44
2023-01-18T10:05:25.116Z,98119.50
2023-01-18T10:08:02.796Z,98123.00
2023-01-18T10:10:31.417Z,98141.13
2023-01-18T10:13:19.223Z,98131.00
2023-01-18T10:15:46.052Z,98148.47
2023-01-18T10:18:12.820Z,98153.75
2023-01-18T10:20:42.275Z,98143.66
2023-01-18T10:23:08.852Z,98161.25
2023-01-18T10:25:44.298Z,98162.34
2023-01-18T10:28:25.311Z,98179.44
2023-01-18T10:30:58.154Z,98187.44
2023-01-18T10:33:28.064Z,98175.66
2023-01-18T10:36:01.879Z,98167.47
2023-01-18T10:38:29.364Z,98168.84
2023-01-18T10:40:59.323Z,98176.00
2023-01-18T10:43:28.933Z,98176.84
2023-01-18T10:45:56.015Z,98183.63
2023-01-18T10:48:32.669Z,98185.41
2023-01-18T10:51:00.659Z,98200.00
2023-01-18T10:53:27.382Z,98205.34
2023-01-18T10:56:02.188Z,98209.69
2023-01-18T10:58:34.223Z,98210.59
2023-01-18T11:01:03.819Z,98216.03
2023-01-18T11:03:33.102Z,98223.81
2023-01-18T11:06:04.185Z,98234.69
2023-01-18T11:08:35.543Z,98235.81
2023-01-18T11:11:05.472Z,98232.47
2023-01-18T11:13:35.208Z,98228.16
2023-01-18T11:16:04.285Z,98227.34
2023-01-18T11:18:33.562Z,98240.47
2023-01-18T11:21:02.706Z,98245.16
2023-01-18T11:23:43.665Z,98246.41
2023-01-18T11:26:14.267Z,98264.50
2023-01-18T11:28:59.268Z,98256.03
2023-01-18T11:31:45.869Z,98270.06
2023-01-18T11:34:38.779Z,98278.91
2023-01-18T11:37:05.720Z,98270.75
2023-01-18T11:39:36.665Z,98273.63
2023-01-18T11:42:21.037Z,98274.72
2023-01-18T11:45:09.006Z,98278.19
2023-01-18T11:47:50.959Z,98291.16
2023-01-18T11:50:39.917Z,98279.03
2023-01-18T11:53:25.454Z,98291.19
2023-01-18T11:55:56.096Z,98296.38
2023-01-18T11:58:24.833Z,98310.19
2023-01-18T12:01:21.856Z,98301.53
2023-01-18T12:03:51.591Z,98315.38
2023-01-18T12:06:18.193Z,98316.28
2023-01-18T12:08:44.921Z,98330.13
2023-01-18T12:11:20.874Z,98332.66
2023-01-18T12:14:06.640Z,98340.44
2023-01-18T12:16:55.148Z,98351.63
2023-01-18T12:19:24.982Z,98345.41
2023-01-18T12:21:54.614Z,98362.31
2023-01-18T12:24:28.396Z,98362.81
2023-01-18T12:27:00.636Z,98372.34
2023-01-18T12:29:43.240Z,98384.63
2023-01-18T12:32:31.213Z,98376.63
2023-01-18T12:35:23.653Z,98372.19
2023-01-18T12:38:02.505Z,98375.47
2023-01-18T12:40:29.139Z,98390.28
2023-01-18T12:42:55.708Z,98392.03
2023-01-18T12:45:26.493Z,98396.28
2023-01-18T12:47:59.529Z,98396.22
2023-01-18T12:50:30.299Z,98395.38
2023-01-18T12:53:01.236Z,98393.69
2023-01-18T12:55:31.731Z,98406.53
2023-01-18T12:58:01.630Z,98412.75
2023-01-18T13:00:31.753Z,98413.78
2023-01-18T13:03:00.772Z,98411.25
2023-01-18T13:05:51.101Z,98428.66
2023-01-18T13:08:27.077Z,98435.63
2023-01-18T13:10:54.234Z,98436.50
2023-01-18T13:13:22.765Z,98443.41
2023-01-18T13:16:09.931Z,98446.81
2023-01-18T13:18:38.095Z,98454.63
2023-01-18T13:21:17.172Z,98449.41
2023-01-18T13:23:55.602Z,98453.69
2023-01-18T13:26:22.276Z,98461.41
2023-01-18T13:28:51.289Z,98476.16
2023-01-18T13:31:17.940Z,98483.06
2023-01-18T13:33:50.725Z,98485.53
2023-01-18T13:36:18.114Z,98494.09
2023-01-18T13:38:52.521Z,98487.00
2023-01-18T13:41:26.148Z,98482.72
2023-01-18T13:43:56.879Z,98485.34
2023-01-18T13:46:24.753Z,98487.00
2023-01-18T13:48:57.779Z,98492.13
2023-01-18T13:51:37.184Z,98474.97
2023-01-18T13:54:06.905Z,98480.91
2023-01-18T13:56:38.669Z,98480.09
2023-01-18T13:59:28.005Z,98478.56
2023-01-18T14:01:54.756Z,98486.34
2023-01-18T14:04:24.589Z,98496.56
2023-01-18T14:06:51.640Z,98496.59
2023-01-18T14:09:20.732Z,98503.31
2023-01-18T14:11:51.509Z,98508.56
2023-01-18T14:14:20.537Z,98512.97
2023-01-18T14:16:59.984Z,98520.59
2023-01-18T14:19:31.246Z,98517.91
2023-01-18T14:22:12.838Z,98527.38
2023-01-18T14:24:42.617Z,98536.91
2023-01-18T14:27:14.892Z,98545.50
2023-01-18T14:29:53.122Z,98548.78
2023-01-18T14:32:45.107Z,98553.88
2023-01-18T14:35:25.743Z,98554.50
2023-01-18T14:38:17.747Z,98557.94
2023-01-18T14:40:48.949Z,98558.91
2023-01-18T14:43:24.375Z,98554.63
2023-01-18T14:46:01.795Z,98570.97
2023-01-18T14:48:31.674Z,98574.34
2023-01-18T14:51:05.033Z,98576.78
2023-01-18T14:53:33.687Z,98565.53
2023-01-18T14:56:17.327Z,98566.44
2023-01-18T14:58:50.668Z,98571.53
2023-01-18T15:01:27.607Z,98579.19
2023-01-18T15:03:55.739Z,98567.97
2023-01-18T15:06:36.643Z,98563.75
2023-01-18T15:09:05.220Z,98563.84
2023-01-18T15:11:35.682Z,98559.59
2023-01-18T15:14:02.507Z,98555.25
2023-01-18T15:16:34.022Z,98559.50
2023-01-18T15:19:02.020Z,98555.25
2023-01-18T15:21:30.263Z,98551.81
2023-01-18T15:24:11.620Z,98544.94
2023-01-18T15:26:52.343Z,98533.78
2023-01-18T15:29:31.210Z,98538.97
2023-01-18T15:31:58.868Z,98554.41
2023-01-18T15:34:30.279Z,98560.41
2023-01-18T15:37:05.124Z,98543.22
2023-01-18T15:39:35.101Z,98557.03
2023-01-18T15:42:11.753Z,98566.56
2023-01-18T15:44:41.590Z,98584.66
2023-01-18T15:47:40.397Z,98591.50
2023-01-18T15:50:15.838Z,98599.16
2023-01-18T15:52:45.535Z,98612.09
2023-01-18T15:55:36.990Z,98629.34
2023-01-18T15:58:05.679Z,98623.38
2023-01-18T16:00:45.779Z,98624.28
2023-01-18T16:03:22.446Z,98620.88
2023-01-18T16:06:10.293Z,98619.25
2023-01-18T16:08:37.890Z,98621.88
2023-01-18T16:11:06.441Z,98619.25
2023-01-18T16:13:34.513Z,98625.16
2023-01-18T16:16:17.549Z,98645.84
2023-01-18T16:18:47.696Z,98645.94
2023-01-18T16:21:17.931Z,98644.09
2023-01-18T16:23:45.163Z,98647.56
2023-01-18T16:26:11.889Z,98651.88
2023-01-18T16:28:40.889Z,98652.00
2023-01-18T16:31:07.529Z,98648.69
2023-01-18T16:33:34.209Z,98643.63
2023-01-18T16:36:01.961Z,98647.09
2023-01-18T16:38:28.609Z,98651.50
2023-01-18T16:40:57.624Z,98633.41
2023-01-18T16:43:29.420Z,98651.56
2023-01-18T16:45:56.879Z,98649.88
2023-01-18T16:48:26.946Z,98638.69
2023-01-18T16:51:01.718Z,98643.84
2023-01-18T16:53:28.573Z,98637.72
2023-01-18T16:55:57.976Z,98642.88
2023-01-18T16:58:24.719Z,98658.34
2023-01-18T17:00:58.444Z,98655.75
2023-01-18T17:03:27.726Z,98656.63
2023-01-18T17:05:54.856Z,98662.66
2023-01-18T17:08:27.174Z,98656.59
2023-01-18T17:10:54.888Z,98665.19
2023-01-18T17:13:22.255Z,98666.03
2023-01-18T17:15:51.633Z,98665.19
2023-01-18T17:18:22.080Z,98656.56
2023-01-18T17:20:48.741Z,98652.31
2023-01-18T17:23:15.762Z,98671.28
2023-01-18T17:25:46.528Z,98683.34
2023-01-18T17:28:14.543Z,98667.78
2023-01-18T17:30:41.684Z,98671.22
2023-01-18T17:33:15.704Z,98699.75
2023-01-18T17:35:44.788Z,98720.34
2023-01-18T17:38:22.282Z,98725.22
2023-01-18T17:40:49.661Z,98709.56
2023-01-18T17:43:32.717Z,98714.84
2023-01-18T17:46:06.438Z,98722.59
2023-01-18T17:48:33.565Z,98740.75
2023-01-18T17:51:02.811Z,98757.16
2023-01-18T17:53:29.410Z,98755.44
2023-01-18T17:55:56.036Z,98752.84
2023-01-18T17:58:22.962Z,98761.50
2023-01-18T18:00:49.814Z,98764.09
2023-01-18T18:03:16.688Z,98770.25
2023-01-18T18:05:45.931Z,98771.97
2023-01-18T18:08:12.614Z,98761.66
2023-01-18T18:10:41.922Z,98766.00
2023-01-18T18:13:08.571Z,98763.34
2023-01-18T18:15:37.838Z,98765.75
2023-01-18T18:18:12.352Z,98779.31
2023-01-18T18:20:48.810Z,98768.91
2023-01-18T18:23:20.915Z,98760.34
2023-01-18T18:25:58.497Z,98762.00
2023-01-18T18:28:30.552Z,98762.00
2023-01-18T18:30:59.649Z,98762.75
2023-01-18T18:33:29.623Z,98761.81
2023-01-18T18:35:56.353Z,98754.06
2023-01-18T18:38:27.395Z,98755.06
2023-01-18T18:41:05.048Z,98745.78
2023-01-18T18:43:33.941Z,98749.31
2023-01-18T18:46:01.357Z,98751.09
2023-01-18T18:48:28.021Z,98752.78
2023-01-18T18:50:56.942Z,98751.91
2023-01-18T18:53:36.975Z,98744.09
2023-01-18T18:56:06.997Z,98744.00
2023-01-18T18:58:34.167Z,98754.19
2023-01-18T19:01:01.094Z,98752.44
2023-01-18T19:03:30.139Z,98736.00
2023-01-18T19:05:56.789Z,98747.16
2023-01-18T19:08:23.988Z,98747.91
2023-01-18T19:10:57.304Z,98753.97
2023-01-18T19:13:23.976Z,98755.69
2023-01-18T19:15:51.323Z,98748.72
2023-01-18T19:18:20.786Z,98747.88
2023-01-18T19:20:49.863Z,98752.97
2023-01-18T19:23:16.568Z,98746.91
2023-01-18T19:25:46.900Z,98745.13
2023-01-18T19:28:16.247Z,98748.50
2023-01-18T19:30:45.339Z,98750.25
2023-01-18T19:33:12.284Z,98751.06
2023-01-18T19:35:40.925Z,98760.59
2023-01-18T19:38:07.925Z,98757.19
2023-01-18T19:40:34.673Z,98751.16
2023-01-18T19:43:01.899Z,98754.56
2023-01-18T19:45:33.517Z,98755.34
2023-01-18T19:48:00.708Z,98769.13
2023-01-18T19:50:30.701Z,98769.13
2023-01-18T19:53:45.531Z,98760.53
2023-01-18T19:56:16.857Z,98764.03
2023-01-18T20:18:15.700Z,98764.09
2023-01-18T20:20:51.099Z,98773.50
2023-01-18T20:23:20.103Z,98772.66
2023-01-18T20:25:53.515Z,98765.75
2023-01-18T20:28:20.109Z,98772.69
2023-01-18T20:30:50.595Z,98772.69
2023-01-18T20:33:19.474Z,98768.31
2023-01-18T20:35:46.769Z,98775.94
2023-01-18T20:38:13.359Z,98775.81
2023-01-18T20:40:43.064Z,98787.00
2023-01-18T20:43:09.874Z,98782.75
2023-01-18T20:45:36.554Z,98770.69
2023-01-18T20:48:05.984Z,98771.53
2023-01-18T20:50:35.703Z,98780.97
2023-01-18T20:53:02.837Z,98782.75
2023-01-18T20:55:29.467Z,98779.25
2023-01-18T20:57:57.079Z,98766.31
2023-01-18T21:00:27.101Z,98766.38
2023-01-18T21:02:53.768Z,98769.78
2023-01-18T21:05:23.178Z,98773.19
2023-01-18T21:07:49.768Z,98768.84
2023-01-18T21:10:19.488Z,98764.44
2023-01-18T21:12:48.120Z,98774.75
2023-01-18T21:15:19.549Z,98761.84
2023-01-18T21:17:46.241Z,98759.16
2023-01-18T21:20:13.216Z,98759.91
2023-01-18T21:22:39.849Z,98753.06
2023-01-18T21:25:09.533Z,98741.88
2023-01-18T21:27:37.031Z,98737.50
2023-01-18T21:30:06.200Z,98739.31
2023-01-18T21:32:32.862Z,98731.59
2023-01-18T21:34:59.628Z,98719.50
2023-01-18T21:37:27.393Z,98710.00
2023-01-18T21:39:58.253Z,98703.06
2023-01-18T21:42:43.668Z,98712.22
2023-01-18T21:45:32.931Z,98723.16
2023-01-18T21:48:01.367Z,98729.88
2023-01-18T21:50:47.013Z,98737.72
2023-01-18T21:53:34.887Z,98732.44
2023-01-18T21:56:01.539Z,98729.94
2023-01-18T21:58:46.831Z,98747.84
2023-01-18T22:01:19.559Z,98756.22
2023-01-18T22:04:04.929Z,98775.06
2023-01-18T22:06:36.397Z,98763.97
2023-01-18T22:09:03.980Z,98768.38
2023-01-18T22:11:33.635Z,98764.94
2023-01-18T22:14:02.803Z,98752.13
2023-01-18T22:16:30.674Z,98759.78
2023-01-18T22:18:58.061Z,98787.19
2023-01-18T22:21:25.457Z,98777.69
2023-01-18T22:23:52.871Z,98768.03
2023-01-18T22:26:23.295Z,98774.88
2023-01-18T22:28:52.438Z,98777.53
2023-01-18T22:31:19.353Z,98772.34
2023-01-18T22:33:47.159Z,98770.72
2023-01-18T22:36:13.975Z,98774.13
2023-01-18T22:38:40.727Z,98780.09
2023-01-18T22:41:10.307Z,98771.44
2023-01-18T22:43:36.895Z,98767.13
2023-01-18T22:46:07.128Z,98758.59
2023-01-18T22:48:35.079Z,98755.19
2023-01-18T22:51:01.820Z,98747.50
2023-01-18T22:53:29.909Z,98749.19
2023-01-18T22:56:00.697Z,98749.25
2023-01-18T22:58:27.348Z,98745.03
2023-01-18T23:00:56.453Z,98746.69
2023-01-18T23:03:23.472Z,98749.19
2023-01-18T23:05:56.937Z,98749.97
2023-01-18T23:08:42.339Z,98748.13
2023-01-18T23:11:13.131Z,98742.19
2023-01-18T23:13:40.088Z,98731.13
2023-01-18T23:16:28.790Z,98733.78
2023-01-18T23:18:55.385Z,98730.09
2023-01-18T23:21:22.221Z,98724.06
2023-01-18T23:23:48.914Z,98733.25
2023-01-18T23:26:15.795Z,98726.09
2023-01-18T23:28:42.549Z,98719.94
2023-01-18T23:31:13.594Z,98710.38
2023-01-18T23:33:40.539Z,98704.28
2023-01-18T23:36:09.871Z,98696.63
2023-01-18T23:38:57.714Z,98698.38
2023-01-18T23:41:43.245Z,98686.31
2023-01-18T23:44:28.450Z,98688.84
2023-01-18T23:47:16.510Z,98683.53
2023-01-18T23:50:04.386Z,98677.44
2023-01-18T23:52:51.982Z,98678.38
2023-01-18T23:55:18.613Z,98668.19
2023-01-18T23:57:45.185Z,98663.16
